• Join FlightAware (Why Join?)
  • Login
  • US Flag 
05:49PM EDT


 

Airport Tracker/Info


-or-


 

Live Flight TrackerFlight Track Log ✈ N240JK ✈ 23-Jun-2013 ✈ KUES - KECG

Flight Track Log - Related Links

Times and Time Zones

All times are in EDT time to prevent confusion due to time zone crossing. See the N240JK flight status page for this flight to view local times or setup timezone preferences in your user account.

Time Position Orientation Groundspeed Altitude Reporting Facility
EDT Latitude Longitude Course Direction KTS MPH feet Rate Location/Type
01:13PM 43.0333 -88.3000 236° Southwest 206 237 2,800  Level KMKE
01:14PM 42.9667 -88.2833 170° South 270 311 4,500 1,740 Climbing KMKE
01:15PM 42.9475 -88.2497 128° Southeast 270 311 5,300 2,220 Climbing Chicago Center
01:16PM 42.9558 -88.1206 85° East 291 335 7,900 2,220 Climbing Chicago Center
01:17PM 42.9656 -88.0022 84° East 310 357 9,900 1,800 Climbing Chicago Center
01:18PM 42.9733 -87.8794 85° East 323 372 11,700 1,920 Climbing Chicago Center
01:19PM 42.9789 -87.7497 87° East 339 390 14,000 2,280 Climbing Chicago Center
01:20PM 42.9875 -87.6200 85° East 342 394 16,500 2,520 Climbing Chicago Center
01:21PM 42.9981 -87.4675 85° East 346 398 19,300 2,040 Climbing Chicago Center
01:22PM 42.9944 -87.3503 92° East 368 423 20,800 1,740 Climbing Chicago Center
01:23PM 42.9253 -87.2036 123° Southeast 385 443 23,000 1,980 Climbing Chicago Center
01:24PM 42.8711 -87.0753 120° Southeast 391 450 24,900 1,740 Climbing Chicago Center
01:25PM 42.8161 -86.9425 119° Southeast 401 461 26,600 1,620 Climbing Chicago Center
01:26PM 42.7611 -86.8106 120° Southeast 403 464 28,300 1,560 Climbing Chicago Center
01:27PM 42.7181 -86.6664 112° Southeast 412 474 29,900 1,860 Climbing Chicago Center
01:28PM 42.6842 -86.4858 104° East 415 478 32,200 2,160 Climbing Chicago Center
01:29PM 42.6564 -86.3372 104° East 411 473 34,400 2,040 Climbing Chicago Center
01:30PM 42.6333 -86.1917 102° East 402 463 36,500 1,260 Climbing Chicago Center
01:31PM 42.5719 -86.0650 123° Southeast 415 478 37,000 540 Climbing Chicago Center
01:32PM 42.5033 -85.9428 127° Southeast 414 476 37,700 960 Climbing Chicago Center
01:33PM 42.4242 -85.7944 126° Southeast 407 468 39,000 600 Climbing Chicago Center
01:34PM 42.3567 -85.6717 127° Southeast 408 470 39,000  Level Chicago Center
01:35PM 42.2897 -85.5486 126° Southeast 410 472 39,000  Level Chicago Center
01:36PM 42.2228 -85.4269 127° Southeast 407 468 39,000  Level Chicago Center
01:38PM 42.1561 -85.3039 126° Southeast 408 470 39,000  Level Chicago Center
01:39PM 42.0878 -85.1786 126° Southeast 409 471 39,000  Level Chicago Center
01:40PM 42.0078 -85.0333 127° Southeast 405 466 39,000  Level Chicago Center
01:41PM 41.9467 -84.9233 127° Southeast 401 461 39,000  Level Chicago Center
01:42PM 41.8781 -84.8025 127° Southeast 403 464 39,000  Level Chicago Center
01:43PM 41.8103 -84.6853 128° Southeast 399 459 39,000  Level Chicago Center
01:43PM 41.7683 -84.6064 125° Southeast 402 463 39,000  Level Cleveland Center
01:44PM 41.7014 -84.4911 128° Southeast 402 463 39,000  Level Cleveland Center
01:45PM 41.6344 -84.3731 127° Southeast 397 457 39,000  Level Cleveland Center
01:46PM 41.5953 -84.3078 129° Southeast 398 458 39,000  Level Chicago Center
01:47PM 41.5278 -84.1908 128° Southeast 397 457 39,000  Level Chicago Center
01:48PM 41.4608 -84.0739 127° Southeast 397 457 39,000  Level Chicago Center
01:49PM 41.3931 -83.9572 128° Southeast 396 456 39,000  Level Chicago Center
01:50PM 41.3256 -83.8414 128° Southeast 396 456 39,000  Level Chicago Center
01:51PM 41.2433 -83.7025 128° Southeast 397 457 39,000  Level Chicago Center
01:52PM 41.1561 -83.5617 129° Southeast 402 463 39,000  Level Cleveland Center
01:53PM 41.1111 -83.4778 125° Southeast 400 460 39,000  Level Indianapolis Center
01:54PM 41.0417 -83.3622 129° Southeast 401 461 39,000  Level Indianapolis Center
01:55PM 40.9728 -83.2456 128° Southeast 399 459 39,000  Level Indianapolis Center
01:56PM 40.9044 -83.1308 128° Southeast 396 456 39,000  Level Indianapolis Center
01:57PM 40.8350 -83.0153 128° Southeast 397 457 39,000  Level Indianapolis Center
01:58PM 40.7672 -82.8994 128° Southeast 397 457 39,000  Level Indianapolis Center
01:59PM 40.6981 -82.7850 129° Southeast 397 457 39,000  Level Indianapolis Center
02:00PM 40.6289 -82.6703 128° Southeast 399 459 39,000  Level Indianapolis Center
02:01PM 40.5481 -82.5375 129° Southeast 397 457 39,000  Level Indianapolis Center
02:02PM 40.4781 -82.4233 129° Southeast 398 458 39,000  Level Indianapolis Center
02:03PM 40.4100 -82.3108 128° Southeast 394 453 39,000  Level Indianapolis Center
02:04PM 40.3411 -82.2000 129° Southeast 390 449 39,000  Level Indianapolis Center
02:05PM 40.2731 -82.0889 129° Southeast 389 448 39,000  Level Indianapolis Center
02:06PM 40.2006 -81.9719 129° Southeast 389 448 39,000  Level Indianapolis Center
02:07PM 40.1314 -81.8608 129° Southeast 390 449 39,000  Level Indianapolis Center
02:08PM 40.0675 -81.7581 129° Southeast 386 444 39,000  Level Indianapolis Center
02:09PM 39.9881 -81.6300 129° Southeast 386 444 39,000  Level Indianapolis Center
02:10PM 39.9264 -81.5319 129° Southeast 383 441 39,000  Level Indianapolis Center
02:11PM 39.8561 -81.4175 129° Southeast 387 445 39,000  Level Indianapolis Center
02:12PM 39.7875 -81.3094 130° Southeast 387 445 39,000  Level Indianapolis Center
02:13PM 39.7178 -81.2006 130° Southeast 390 449 39,000  Level Indianapolis Center
02:15PM 39.5972 -81.0086 129° Southeast 388 447 39,000  Level Cleveland Center
02:16PM 39.5269 -80.8978 129° Southeast 388 447 39,000  Level Cleveland Center
02:17PM 39.4542 -80.7875 131° Southeast 388 447 39,000  Level Cleveland Center
02:19PM 39.3489 -80.6256 130° Southeast 397 457 39,000  Level Indianapolis Center
02:20PM 39.2306 -80.4392 129° Southeast 396 456 39,000  Level Washington Center
02:21PM 39.1619 -80.3300 129° Southeast 396 456 39,000  Level Washington Center
02:22PM 39.0911 -80.2211 130° Southeast 396 456 39,000  Level Washington Center
02:23PM 39.0100 -80.1092 133° Southeast 396 456 39,000  Level Washington Center
02:24PM 38.9389 -80.0006 130° Southeast 396 456 39,000  Level Washington Center
02:25PM 38.8717 -79.9033 132° Southeast 396 456 39,000  Level Washington Center
02:26PM 38.7872 -79.8131 140° Southeast 396 456 39,000  Level Washington Center
02:27PM 38.7008 -79.7178 139° Southeast 401 461 39,000  Level Washington Center
02:28PM 38.6083 -79.6142 139° Southeast 401 461 39,000  Level Washington Center
02:29PM 38.5261 -79.5194 138° Southeast 401 461 39,000  Level Washington Center
02:30PM 38.4414 -79.4275 140° Southeast 401 461 39,000  Level Washington Center
02:31PM 38.3569 -79.3331 139° Southeast 401 461 39,000 -120 Level Washington Center
02:32PM 38.2803 -79.2500 140° Southeast 401 461 38,800 -600 Descending Washington Center
02:33PM 38.1911 -79.1608 142° Southeast 406 467 37,900 -1,080 Descending Washington Center
02:34PM 38.1019 -79.0722 142° Southeast 411 473 36,700 -1,620 Descending Washington Center
02:35PM 38.0169 -78.9786 139° Southeast 405 466 34,800 -1,920 Descending Washington Center
02:36PM 37.9364 -78.8750 135° Southeast 405 466 32,900 -1,920 Descending Washington Center
02:37PM 37.8603 -78.7586 130° Southeast 399 459 31,000 -1,020 Descending Washington Center
02:38PM 37.8061 -78.6750 129° Southeast 393 452 30,900 -1,140 Descending Washington Center
02:39PM 37.7200 -78.5347 128° Southeast 405 466 28,800 -1,440 Descending Washington Center
02:40PM 37.6500 -78.4114 126° Southeast 417 480 28,000 -600 Descending Washington Center
02:41PM 37.5878 -78.3069 127° Southeast 425 489 27,700 -900 Descending Washington Center
02:42PM 37.5175 -78.1892 127° Southeast 425 489 26,300 -1,500 Descending Washington Center
02:43PM 37.4344 -78.0608 129° Southeast 425 489 24,700 -1,560 Descending Washington Center
02:44PM 37.3575 -77.9539 132° Southeast 425 489 23,200 -1,200 Descending Washington Center
02:45PM 37.2758 -77.8625 138° Southeast 410 472 22,400 -1,620 Descending Washington Center
02:46PM 37.1981 -77.7717 137° Southeast 392 451 20,100 -2,040 Descending Washington Center
02:47PM 37.1353 -77.6683 127° Southeast 365 420 18,300 -1,500 Descending Washington Center
02:48PM 37.0786 -77.5703 126° Southeast 371 427 17,200 -720 Descending Washington Center
02:49PM 37.0156 -77.4594 125° Southeast 382 440 17,000 -120 Descending Washington Center
02:50PM 36.9528 -77.3514 126° Southeast 382 440 17,000  Level Washington Center
02:51PM 36.8833 -77.2356 127° Southeast 391 450 17,100  Climbing Washington Center
02:52PM 36.8242 -77.1331 126° Southeast 392 451 17,000 -60 Descending Washington Center
02:53PM 36.7608 -77.0231 126° Southeast 392 451 17,000  Level Washington Center
02:54PM 36.6975 -76.9131 126° Southeast 392 451 17,000  Level Washington Center
02:55PM 36.6564 -76.8478 128° Southeast 395 455 17,000 -120 Level Washington Center
02:56PM 36.5908 -76.7328 125° Southeast 394 453 16,900 -1,320 Descending Washington Center
02:57PM 36.5394 -76.6467 127° Southeast 348 400 14,500 -2,700 Descending Washington Center
02:57PM 36.5067 -76.5894 125° Southeast 373 429 13,000 -2,640 Descending Washington Center
02:58PM 36.4594 -76.4933 121° Southeast 347 399 10,400 -2,040 Descending Washington Center
02:59PM 36.4308 -76.3975 110° East 316 364 8,900 -2,160 Descending Washington Center
03:00PM 36.3728 -76.3350 139° Southeast 271 312 6,100 -2,580 Descending Washington Center
03:02PM 36.2750 -76.2928 161° South 237 273 2,600 -1,860 Descending Washington Center
03:03PM 36.2564 -76.2386 113° Southeast 169 194 1,300 -900 Descending Washington Center
03:04PM 36.2650 -76.1975 75° East 163 188 800 -540 Descending Washington Center